Agoura, California
Current Conditions -  °F | °C
As of 2:51 AM on Monday 20 Oct 2014 (Local Time) from KVNY Reporting Station
Haze Haze  
Wind Chill: 64°   Ceiling: 700
Heat Index: 64°   Visibility: 5mi
Dew Point: 60°   Wind: 3mph
Humidity: 87%   Direction: 360°N
Pressure: 29.9"   Gusts: NA
Location:  34.1232°N, 118.77°W
Report Text: KVNY 200951Z AUTO 36003KT 5SM BR OVC007 18/16 A2990 RMK AO2 SLP116 T01780156
Loading
Personal Weather Stations






























Interactive Weather Map
Tropical Storm Tracking
New forecast layout! Learn more

10-Day Weather Forecast

Advertisements
Track Severe Weather on mobile